createdAt,value
2022-10-10T00:00:59.290Z,11.54
2022-10-10T00:03:27.079Z,11.57
2022-10-10T00:05:54.824Z,11.68
2022-10-10T00:08:22.573Z,11.54
2022-10-10T00:10:50.290Z,11.33
2022-10-10T00:13:18.000Z,11.47
2022-10-10T00:15:48.870Z,11.46
2022-10-10T00:18:18.201Z,11.36
2022-10-10T00:20:46.064Z,11.82
2022-10-10T00:23:13.792Z,11.48
2022-10-10T00:25:41.492Z,11.77
2022-10-10T00:28:09.276Z,11.57
2022-10-10T00:30:37.013Z,11.33
2022-10-10T00:33:04.770Z,11.48
2022-10-10T00:35:33.909Z,11.74
2022-10-10T00:38:02.029Z,12.03
2022-10-10T00:40:30.093Z,11.85
2022-10-10T00:42:57.857Z,11.88
2022-10-10T00:45:30.054Z,11.76
2022-10-10T00:48:03.547Z,11.48
2022-10-10T00:50:34.973Z,11.60
2022-10-10T00:53:06.801Z,11.70
2022-10-10T00:55:35.852Z,11.48
2022-10-10T00:58:04.879Z,11.55
2022-10-10T01:00:32.628Z,11.53
2022-10-10T01:03:00.394Z,11.28
2022-10-10T01:05:28.198Z,11.43
2022-10-10T01:07:57.956Z,11.53
2022-10-10T01:10:26.486Z,11.69
2022-10-10T01:13:06.417Z,11.56
2022-10-10T01:15:48.597Z,11.82
2022-10-10T01:18:24.254Z,12.01
2022-10-10T01:21:04.709Z,11.78
2022-10-10T01:23:52.351Z,11.44
2022-10-10T01:26:44.795Z,11.50
2022-10-10T01:29:23.027Z,11.65
2022-10-10T01:31:55.290Z,11.74
2022-10-10T01:34:32.421Z,11.78
2022-10-10T01:37:05.518Z,11.79
2022-10-10T01:39:43.521Z,11.52
2022-10-10T01:42:17.452Z,11.75
2022-10-10T01:44:48.301Z,11.66
2022-10-10T01:47:16.179Z,11.42
2022-10-10T01:49:46.099Z,11.43
2022-10-10T01:52:29.646Z,11.73
2022-10-10T01:55:10.953Z,11.46
2022-10-10T01:57:51.031Z,11.39
2022-10-10T02:00:20.535Z,11.19
2022-10-10T02:02:54.339Z,11.60
2022-10-10T02:05:29.126Z,11.29
2022-10-10T02:07:59.386Z,11.56
2022-10-10T02:10:30.956Z,11.53
2022-10-10T02:13:01.866Z,11.17
2022-10-10T02:15:36.025Z,11.22
2022-10-10T02:18:06.283Z,11.31
2022-10-10T02:20:34.220Z,11.05
2022-10-10T02:23:02.057Z,10.95
2022-10-10T02:25:33.930Z,10.73
2022-10-10T02:28:09.872Z,10.88
2022-10-10T02:30:44.129Z,10.73
2022-10-10T02:33:17.115Z,10.57
2022-10-10T02:35:49.362Z,10.48
2022-10-10T02:38:19.077Z,10.61
2022-10-10T02:40:49.213Z,10.51
2022-10-10T02:43:18.838Z,10.41
2022-10-10T02:45:48.136Z,10.31
2022-10-10T02:48:15.851Z,10.47
2022-10-10T02:50:44.178Z,10.52
2022-10-10T02:53:11.928Z,10.55
2022-10-10T02:55:39.653Z,10.56
2022-10-10T02:58:07.450Z,10.29
2022-10-10T03:00:35.143Z,10.47
2022-10-10T03:03:04.328Z,10.27
2022-10-10T03:05:32.026Z,10.51
2022-10-10T03:07:59.730Z,10.53
2022-10-10T03:10:27.557Z,10.50
2022-10-10T03:12:55.270Z,10.22
2022-10-10T03:15:22.963Z,10.25
2022-10-10T03:17:50.631Z,10.43
2022-10-10T03:20:19.855Z,10.54
2022-10-10T03:22:47.735Z,10.30
2022-10-10T03:25:15.665Z,10.51
2022-10-10T03:27:43.470Z,10.31
2022-10-10T03:30:12.519Z,10.29
2022-10-10T03:32:40.266Z,10.34
2022-10-10T03:35:08.547Z,10.11
2022-10-10T03:37:37.587Z,10.60
2022-10-10T03:40:06.100Z,10.31
2022-10-10T03:42:33.781Z,10.00
2022-10-10T03:45:01.437Z,9.92
2022-10-10T03:47:29.161Z,10.68
2022-10-10T03:49:56.792Z,10.24
2022-10-10T03:52:24.430Z,10.12
2022-10-10T03:54:53.530Z,10.08
2022-10-10T03:57:21.200Z,10.18
2022-10-10T03:59:49.012Z,10.06
2022-10-10T04:02:16.700Z,9.76
2022-10-10T04:04:44.361Z,9.79
2022-10-10T04:07:12.091Z,10.03
2022-10-10T04:09:40.140Z,9.66
2022-10-10T04:12:09.251Z,9.68
2022-10-10T04:14:36.913Z,9.83
2022-10-10T04:17:04.615Z,9.51
2022-10-10T04:19:32.306Z,9.96
2022-10-10T04:22:00.012Z,10.09
2022-10-10T04:24:28.050Z,10.21
2022-10-10T04:26:55.797Z,9.83
2022-10-10T04:29:24.943Z,9.96
2022-10-10T04:31:52.635Z,9.72
2022-10-10T04:34:20.896Z,9.44
2022-10-10T04:36:48.577Z,9.50
2022-10-10T04:39:16.256Z,9.72
2022-10-10T04:41:43.937Z,9.54
2022-10-10T04:44:11.605Z,9.42
2022-10-10T04:46:40.686Z,9.65
2022-10-10T04:49:08.379Z,9.62
2022-10-10T04:51:36.054Z,9.75
2022-10-10T04:54:03.820Z,9.60
2022-10-10T04:56:31.516Z,9.66
2022-10-10T04:58:59.196Z,9.53
2022-10-10T05:01:26.939Z,9.44
2022-10-10T05:03:56.247Z,9.59
2022-10-10T05:06:23.952Z,9.50
2022-10-10T05:08:51.681Z,9.35
2022-10-10T05:11:19.437Z,9.30
2022-10-10T05:13:47.123Z,9.27
2022-10-10T05:16:14.786Z,9.12
2022-10-10T05:18:42.520Z,9.04
2022-10-10T05:21:11.979Z,9.04
2022-10-10T05:23:41.353Z,9.04
2022-10-10T05:26:09.832Z,9.22
2022-10-10T05:28:38.312Z,9.09
2022-10-10T05:31:06.703Z,9.24
2022-10-10T05:33:35.240Z,9.39
2022-10-10T05:36:05.218Z,9.16
2022-10-10T05:38:34.657Z,9.27
2022-10-10T05:41:02.361Z,9.73
2022-10-10T05:43:30.408Z,9.40
2022-10-10T05:45:58.102Z,9.53
2022-10-10T05:48:26.132Z,9.37
2022-10-10T05:50:56.999Z,9.62
2022-10-10T05:53:25.846Z,9.43
2022-10-10T05:55:54.887Z,9.31
2022-10-10T05:58:22.705Z,9.16
2022-10-10T06:00:50.451Z,9.46
2022-10-10T06:03:18.273Z,9.10
2022-10-10T06:05:48.733Z,9.18
2022-10-10T06:08:16.485Z,9.32
2022-10-10T06:10:46.784Z,9.50
2022-10-10T06:13:23.051Z,9.54
2022-10-10T06:15:52.445Z,9.23
2022-10-10T06:18:20.206Z,9.48
2022-10-10T06:20:47.950Z,9.37
2022-10-10T06:23:16.350Z,9.20
2022-10-10T06:25:44.088Z,9.32
2022-10-10T06:28:12.256Z,9.62
2022-10-10T06:30:48.430Z,9.56
2022-10-10T06:33:18.569Z,9.20
2022-10-10T06:35:48.576Z,9.56
2022-10-10T06:38:18.044Z,9.65
2022-10-10T06:40:46.560Z,10.01
2022-10-10T06:43:15.716Z,9.99
2022-10-10T06:45:47.163Z,10.05
2022-10-10T06:48:15.929Z,10.43
2022-10-10T06:50:43.804Z,10.01
2022-10-10T06:53:11.871Z,10.32
2022-10-10T06:55:39.565Z,10.13
2022-10-10T06:58:07.652Z,10.03
2022-10-10T07:00:35.346Z,10.43
2022-10-10T07:03:04.669Z,10.33
2022-10-10T07:05:32.364Z,10.81
2022-10-10T07:08:00.024Z,10.64
2022-10-10T07:10:27.741Z,10.60
2022-10-10T07:12:55.598Z,10.80
2022-10-10T07:15:23.903Z,10.78
2022-10-10T07:17:58.537Z,10.62
2022-10-10T07:20:27.862Z,11.37
2022-10-10T07:22:55.552Z,10.75
2022-10-10T07:25:23.638Z,11.85
2022-10-10T07:27:51.413Z,11.10
2022-10-10T07:30:19.496Z,11.10
2022-10-10T07:32:47.495Z,11.27
2022-10-10T07:35:15.213Z,11.42
2022-10-10T07:37:45.090Z,11.73
2022-10-10T07:40:12.802Z,11.26
2022-10-10T07:42:40.633Z,12.28
2022-10-10T07:45:10.368Z,12.65
2022-10-10T07:47:38.031Z,13.46
2022-10-10T07:50:07.665Z,14.29
2022-10-10T07:52:35.704Z,14.11
2022-10-10T07:55:05.675Z,13.82
2022-10-10T07:57:34.988Z,14.43
2022-10-10T08:00:03.208Z,14.65
2022-10-10T08:02:30.886Z,14.77
2022-10-10T08:04:58.559Z,14.78
2022-10-10T08:07:26.241Z,14.93
2022-10-10T08:09:53.928Z,14.51
2022-10-10T08:12:23.004Z,15.48
2022-10-10T08:14:50.720Z,15.18
2022-10-10T08:17:18.425Z,15.40
2022-10-10T08:19:46.180Z,15.39
2022-10-10T08:22:13.880Z,14.60
2022-10-10T08:24:41.582Z,15.25
2022-10-10T08:27:09.261Z,16.20
2022-10-10T08:29:38.387Z,16.06
2022-10-10T08:32:06.261Z,15.71
2022-10-10T08:34:34.083Z,16.49
2022-10-10T08:37:01.814Z,16.46
2022-10-10T08:39:29.548Z,15.96
2022-10-10T08:41:59.434Z,16.13
2022-10-10T08:44:30.520Z,16.20
2022-10-10T08:47:02.568Z,15.92
2022-10-10T08:49:35.617Z,17.59
2022-10-10T08:52:09.428Z,16.66
2022-10-10T08:54:40.259Z,16.73
2022-10-10T08:57:21.230Z,16.92
2022-10-10T08:59:49.817Z,16.56
2022-10-10T09:02:50.262Z,16.25
2022-10-10T09:05:21.028Z,16.84
2022-10-10T09:08:22.158Z,17.28
2022-10-10T09:10:57.619Z,18.24
2022-10-10T09:13:35.170Z,18.04
2022-10-10T09:16:07.196Z,18.64
2022-10-10T09:18:46.741Z,18.68
2022-10-10T09:21:18.730Z,18.60
2022-10-10T09:23:52.283Z,17.49
2022-10-10T09:26:24.277Z,18.67
2022-10-10T09:28:59.048Z,18.88
2022-10-10T09:31:32.945Z,18.51
2022-10-10T09:34:08.164Z,19.18
2022-10-10T09:36:38.393Z,19.00
2022-10-10T09:39:14.993Z,20.54
2022-10-10T09:41:48.576Z,19.84
2022-10-10T09:44:16.355Z,19.70
2022-10-10T09:46:44.102Z,21.10
2022-10-10T09:49:15.857Z,19.93
2022-10-10T09:51:44.212Z,19.89
2022-10-10T09:54:12.554Z,19.64
2022-10-10T09:56:45.811Z,19.84
2022-10-10T09:59:38.514Z,19.07
2022-10-10T10:02:14.566Z,18.88
2022-10-10T10:04:43.718Z,20.61
2022-10-10T10:07:22.080Z,20.37
2022-10-10T10:09:51.933Z,20.21
2022-10-10T10:12:24.341Z,20.68
2022-10-10T10:14:59.553Z,22.13
2022-10-10T10:17:27.445Z,21.88
2022-10-10T10:19:56.601Z,21.91
2022-10-10T10:22:27.161Z,21.17
2022-10-10T10:24:55.361Z,19.70
2022-10-10T10:27:25.208Z,18.49
2022-10-10T10:29:54.885Z,19.51
2022-10-10T10:32:39.575Z,18.53
2022-10-10T10:35:18.912Z,17.85
2022-10-10T10:38:02.888Z,17.59
2022-10-10T10:40:40.047Z,18.16
2022-10-10T10:43:29.102Z,18.86
2022-10-10T10:46:06.274Z,19.17
2022-10-10T10:48:41.405Z,19.40
2022-10-10T10:51:28.158Z,18.28
2022-10-10T10:54:05.142Z,18.80
2022-10-10T10:56:39.956Z,17.81
2022-10-10T10:59:38.999Z,17.46
2022-10-10T11:02:54.833Z,17.84
2022-10-10T11:05:41.571Z,17.07
2022-10-10T11:08:35.837Z,17.44
2022-10-10T11:11:32.259Z,17.58
2022-10-10T11:14:07.827Z,19.17
2022-10-10T11:16:48.382Z,20.03
2022-10-10T11:19:26.187Z,20.82
2022-10-10T11:21:59.446Z,21.04
2022-10-10T11:24:39.592Z,20.71
2022-10-10T11:27:12.441Z,20.65
2022-10-10T11:29:52.094Z,21.62
2022-10-10T11:32:27.051Z,21.31
2022-10-10T11:35:11.290Z,21.17
2022-10-10T11:37:46.184Z,21.51
2022-10-10T11:40:28.924Z,20.66
2022-10-10T11:43:02.553Z,21.96
2022-10-10T11:45:35.312Z,22.66
2022-10-10T11:48:13.412Z,22.05
2022-10-10T11:50:43.406Z,21.68
2022-10-10T11:53:21.040Z,20.60
2022-10-10T11:55:55.746Z,21.82
2022-10-10T11:58:29.578Z,21.10
2022-10-10T12:01:00.463Z,20.45
2022-10-10T12:03:28.277Z,19.44
2022-10-10T12:06:03.451Z,19.60
2022-10-10T12:08:38.254Z,19.50
2022-10-10T12:11:16.707Z,18.83
2022-10-10T12:13:48.207Z,19.01
2022-10-10T12:16:20.172Z,18.81
2022-10-10T12:18:53.699Z,18.46
2022-10-10T12:21:24.693Z,18.62
2022-10-10T12:24:02.503Z,18.64
2022-10-10T12:27:03.712Z,19.56
2022-10-10T12:29:48.877Z,18.69
2022-10-10T12:32:27.537Z,18.27
2022-10-10T12:35:00.816Z,18.42
2022-10-10T12:37:31.148Z,18.42
2022-10-10T12:40:19.704Z,18.68
2022-10-10T12:43:24.267Z,18.13
2022-10-10T12:46:18.326Z,18.64
2022-10-10T12:48:46.630Z,17.99
2022-10-10T12:51:22.935Z,17.99
2022-10-10T12:53:56.365Z,18.16
2022-10-10T12:56:36.538Z,18.33
2022-10-10T12:59:06.023Z,17.96
2022-10-10T13:01:45.573Z,17.58
2022-10-10T13:04:17.230Z,18.28
2022-10-10T13:06:46.745Z,18.61
2022-10-10T13:09:19.609Z,18.43
2022-10-10T13:11:59.150Z,19.31
2022-10-10T13:14:38.203Z,20.43
2022-10-10T13:17:21.533Z,20.98
2022-10-10T13:19:49.264Z,21.87
2022-10-10T13:22:17.485Z,22.70
2022-10-10T13:24:46.581Z,22.47
2022-10-10T13:27:19.894Z,22.46
2022-10-10T13:29:47.922Z,22.67
2022-10-10T13:32:18.325Z,22.85
2022-10-10T13:34:51.552Z,23.38
2022-10-10T13:37:20.629Z,22.73
2022-10-10T13:39:50.705Z,23.51
2022-10-10T13:42:34.704Z,23.08
2022-10-10T13:45:05.176Z,22.38
2022-10-10T13:47:52.699Z,22.82
2022-10-10T13:50:33.061Z,22.81
2022-10-10T13:53:40.422Z,23.48
2022-10-10T13:56:13.322Z,23.39
2022-10-10T13:58:44.776Z,22.94
2022-10-10T14:01:32.498Z,23.62
2022-10-10T14:04:05.654Z,23.31
2022-10-10T14:06:35.571Z,22.89
2022-10-10T14:09:10.799Z,22.36
2022-10-10T14:11:38.690Z,23.16
2022-10-10T14:14:15.878Z,21.83
2022-10-10T14:16:43.628Z,21.86
2022-10-10T14:19:18.072Z,22.55
2022-10-10T14:21:47.148Z,22.01
2022-10-10T14:24:16.117Z,21.84
2022-10-10T14:26:44.183Z,21.08
2022-10-10T14:29:14.198Z,21.96
2022-10-10T14:31:42.394Z,21.22
2022-10-10T14:34:10.414Z,21.47
2022-10-10T14:36:40.139Z,21.02
2022-10-10T14:39:09.210Z,20.52
2022-10-10T14:41:36.903Z,20.50
2022-10-10T14:44:04.652Z,20.34
2022-10-10T14:46:32.504Z,20.29
2022-10-10T14:49:00.208Z,20.32
2022-10-10T14:51:33.659Z,19.89
2022-10-10T14:54:10.965Z,19.96
2022-10-10T14:57:08.337Z,19.73
2022-10-10T14:59:48.197Z,19.64
2022-10-10T15:05:12.321Z,19.29
2022-10-10T15:07:40.130Z,18.47
2022-10-10T15:12:58.373Z,18.95
2022-10-10T15:15:26.171Z,19.35
2022-10-10T15:17:55.039Z,18.39
2022-10-10T15:20:25.584Z,18.86
2022-10-10T15:22:54.767Z,19.12
2022-10-10T15:25:22.424Z,18.33
2022-10-10T15:27:50.468Z,18.35
2022-10-10T15:30:19.860Z,18.17
2022-10-10T15:32:47.916Z,18.75
2022-10-10T15:35:17.853Z,18.62
2022-10-10T15:37:49.297Z,18.31
2022-10-10T15:40:20.231Z,18.01
2022-10-10T15:42:48.761Z,18.03
2022-10-10T15:45:31.303Z,17.88
2022-10-10T15:48:06.789Z,17.72
2022-10-10T15:50:39.350Z,17.11
2022-10-10T15:53:07.013Z,17.10
2022-10-10T15:55:34.701Z,17.41
2022-10-10T15:58:03.978Z,17.08
2022-10-10T16:00:31.694Z,16.87
2022-10-10T16:02:59.472Z,17.10
2022-10-10T16:05:32.152Z,16.99
2022-10-10T16:08:00.155Z,17.08
2022-10-10T16:10:27.904Z,17.13
2022-10-10T16:12:55.694Z,17.23
2022-10-10T16:15:23.536Z,16.89
2022-10-10T16:17:51.237Z,16.44
2022-10-10T16:20:19.053Z,16.18
2022-10-10T16:22:48.099Z,16.59
2022-10-10T16:25:22.234Z,16.57
2022-10-10T16:27:51.051Z,16.29
2022-10-10T16:30:19.900Z,16.29
2022-10-10T16:32:47.663Z,16.48
2022-10-10T16:35:15.498Z,15.92
2022-10-10T16:37:43.211Z,16.26
2022-10-10T16:40:13.098Z,15.79
2022-10-10T16:42:40.809Z,16.42
2022-10-10T16:45:09.760Z,16.08
2022-10-10T16:47:38.170Z,16.20
2022-10-10T16:50:07.321Z,16.29
2022-10-10T16:52:37.998Z,16.28
2022-10-10T16:55:07.710Z,16.21
2022-10-10T16:57:36.950Z,16.75
2022-10-10T17:00:06.562Z,16.19
2022-10-10T17:02:34.299Z,16.27
2022-10-10T17:05:02.168Z,16.50
2022-10-10T17:07:29.889Z,16.10
2022-10-10T17:09:57.592Z,15.89
2022-10-10T17:12:25.312Z,16.03
2022-10-10T17:14:54.364Z,16.08
2022-10-10T17:17:22.612Z,16.03
2022-10-10T17:19:50.293Z,15.84
2022-10-10T17:22:18.066Z,15.99
2022-10-10T17:24:45.929Z,16.05
2022-10-10T17:27:14.021Z,16.27
2022-10-10T17:29:41.738Z,16.00
2022-10-10T17:32:10.954Z,15.91
2022-10-10T17:34:38.953Z,15.97
2022-10-10T17:37:06.664Z,15.90
2022-10-10T17:39:35.938Z,15.94
2022-10-10T17:42:04.621Z,15.92
2022-10-10T17:44:36.147Z,16.12
2022-10-10T17:47:08.299Z,16.41
2022-10-10T17:49:37.894Z,16.27
2022-10-10T17:52:05.919Z,16.36
2022-10-10T17:54:33.608Z,16.27
2022-10-10T17:57:01.307Z,16.42
2022-10-10T17:59:29.035Z,16.39
2022-10-10T18:01:56.855Z,17.00
2022-10-10T18:04:24.691Z,16.72
2022-10-10T18:06:53.767Z,16.41
2022-10-10T18:09:21.688Z,16.59
2022-10-10T18:11:49.540Z,16.38
2022-10-10T18:14:17.348Z,16.24
2022-10-10T18:16:45.086Z,16.66
2022-10-10T18:19:12.823Z,16.68
2022-10-10T18:21:40.528Z,16.69
2022-10-10T18:24:10.307Z,16.83
2022-10-10T18:26:38.165Z,16.55
2022-10-10T18:29:05.876Z,16.87
2022-10-10T18:31:35.603Z,16.46
2022-10-10T18:34:05.214Z,16.04
2022-10-10T18:36:35.634Z,15.96
2022-10-10T18:39:05.852Z,16.15
2022-10-10T18:41:36.089Z,15.83
2022-10-10T18:44:06.375Z,15.77
2022-10-10T18:46:34.977Z,15.74
2022-10-10T18:49:02.941Z,15.66
2022-10-10T18:51:31.565Z,15.49
2022-10-10T18:54:03.232Z,15.58
2022-10-10T18:56:32.190Z,15.68
2022-10-10T18:59:03.336Z,15.95
2022-10-10T19:01:35.146Z,15.85
2022-10-10T19:04:03.531Z,15.73
2022-10-10T19:06:31.671Z,15.74
2022-10-10T19:09:01.368Z,16.04
2022-10-10T19:11:30.999Z,15.76
2022-10-10T19:14:02.404Z,15.71
2022-10-10T19:16:30.527Z,15.74
2022-10-10T19:18:59.498Z,15.55
2022-10-10T19:21:30.252Z,15.75
2022-10-10T19:23:59.822Z,15.28
2022-10-10T19:26:33.253Z,15.31
2022-10-10T19:29:06.823Z,15.14
2022-10-10T19:31:35.670Z,15.09
2022-10-10T19:34:03.775Z,15.12
2022-10-10T19:36:31.503Z,15.30
2022-10-10T19:39:00.277Z,15.04
2022-10-10T19:41:28.321Z,15.25
2022-10-10T19:43:57.937Z,15.12
2022-10-10T19:46:27.961Z,15.02
2022-10-10T19:48:57.870Z,14.93
2022-10-10T19:51:26.134Z,14.96
2022-10-10T19:53:53.816Z,15.16
2022-10-10T19:56:24.481Z,14.88
2022-10-10T19:58:53.085Z,14.53
2022-10-10T20:01:25.610Z,14.87
2022-10-10T20:03:57.807Z,14.66
2022-10-10T20:06:25.992Z,14.73
2022-10-10T20:08:53.696Z,14.41
2022-10-10T20:11:23.191Z,14.19
2022-10-10T20:13:51.927Z,14.15
2022-10-10T20:16:20.097Z,14.10
2022-10-10T20:18:48.070Z,13.98
2022-10-10T20:21:20.518Z,14.10
2022-10-10T20:24:08.366Z,13.93
2022-10-10T20:26:39.064Z,13.72
2022-10-10T20:29:07.440Z,14.00
2022-10-10T20:31:37.310Z,13.96
2022-10-10T20:34:06.750Z,13.79
2022-10-10T20:36:36.880Z,13.85
2022-10-10T20:39:07.944Z,13.88
2022-10-10T20:41:39.618Z,13.73
2022-10-10T20:44:09.495Z,13.64
2022-10-10T20:46:40.077Z,13.83
2022-10-10T20:49:12.421Z,13.67
2022-10-10T20:51:41.796Z,13.65
2022-10-10T20:54:11.956Z,13.75
2022-10-10T20:56:40.680Z,13.86
2022-10-10T20:59:10.640Z,13.74
2022-10-10T21:01:39.247Z,13.91
2022-10-10T21:04:10.472Z,13.88
2022-10-10T21:06:39.599Z,13.88
2022-10-10T21:09:10.734Z,13.89
2022-10-10T21:11:39.633Z,13.93
2022-10-10T21:14:07.669Z,14.04
2022-10-10T21:16:37.097Z,13.90
2022-10-10T21:19:06.292Z,13.81
2022-10-10T21:21:35.108Z,13.92
2022-10-10T21:24:05.006Z,13.87
2022-10-10T21:26:34.328Z,13.94
2022-10-10T21:29:02.173Z,13.87
2022-10-10T21:31:32.286Z,13.89
2022-10-10T21:34:02.067Z,14.27
2022-10-10T21:36:30.179Z,14.10
2022-10-10T21:38:59.048Z,14.07
2022-10-10T21:41:27.049Z,14.12
2022-10-10T21:43:58.362Z,14.11
2022-10-10T21:46:32.419Z,14.11
2022-10-10T21:49:05.781Z,14.44
2022-10-10T21:51:36.397Z,14.42
2022-10-10T21:54:04.377Z,14.22
2022-10-10T21:56:32.092Z,14.27
2022-10-10T21:59:01.833Z,13.90
2022-10-10T22:01:32.765Z,14.16
2022-10-10T22:04:02.087Z,14.02
2022-10-10T22:06:30.051Z,14.40
2022-10-10T22:08:59.969Z,13.63
2022-10-10T22:11:29.532Z,13.96
2022-10-10T22:13:57.711Z,14.09
2022-10-10T22:16:26.813Z,13.64
2022-10-10T22:18:55.345Z,13.67
2022-10-10T22:21:26.766Z,13.62
2022-10-10T22:23:57.124Z,13.93
2022-10-10T22:26:25.476Z,13.68
2022-10-10T22:28:53.237Z,13.39
2022-10-10T22:31:21.356Z,13.53
2022-10-10T22:33:50.442Z,13.83
2022-10-10T22:36:18.183Z,13.48
2022-10-10T22:38:46.593Z,13.49
2022-10-10T22:41:14.903Z,13.62
2022-10-10T22:43:42.665Z,13.56
2022-10-10T22:46:10.514Z,13.57
2022-10-10T22:48:38.514Z,13.40
2022-10-10T22:51:09.233Z,13.45
2022-10-10T22:53:37.032Z,13.62
2022-10-10T22:56:05.904Z,13.32
2022-10-10T22:58:33.808Z,13.64
2022-10-10T23:01:04.894Z,13.56
2022-10-10T23:03:32.980Z,13.86
2022-10-10T23:06:00.785Z,13.79
2022-10-10T23:08:30.088Z,13.58
2022-10-10T23:10:57.837Z,13.46
2022-10-10T23:13:25.551Z,13.47
2022-10-10T23:15:53.383Z,13.43
2022-10-10T23:18:21.264Z,13.73
2022-10-10T23:20:50.293Z,13.82
2022-10-10T23:23:19.140Z,13.36
2022-10-10T23:25:49.430Z,13.64
2022-10-10T23:28:18.714Z,13.33
2022-10-10T23:30:48.579Z,13.67
2022-10-10T23:33:17.401Z,13.52
2022-10-10T23:35:45.612Z,13.65
2022-10-10T23:38:13.305Z,13.51
2022-10-10T23:40:41.005Z,13.67
2022-10-10T23:43:10.626Z,13.42
2022-10-10T23:45:41.194Z,13.42
2022-10-10T23:48:08.887Z,13.50
2022-10-10T23:50:36.602Z,13.33
2022-10-10T23:53:04.617Z,13.21
2022-10-10T23:55:32.355Z,13.13
2022-10-10T23:58:02.831Z,13.23
